Time;durP1;ratioP1;P1;durP2;ratioP2;P2;SDS_P1;SDS_P2;PMS_P1;PMS_P2;Temp;Humidity;BMP_temperature;BMP_pressure;BME280_temperature;BME280_humidity;BME280_pressure;Samples;Min_cycle;Max_cycle;Signal;HPM_P1;HPM_P2
2021/01/16 00:02:03;;;;;;;;;;;;;;;;;;5052341;28;20063;-69
2021/01/16 00:04:29;;;;;;;;;;;;;;;;;;5050517;28;19912;-73
2021/01/16 00:06:55;;;;;;;;;;;;;;;;;;5055843;28;19909;-72
2021/01/16 00:09:21;;;;;;;;;;;;;;;;;;5053559;28;19989;-71
2021/01/16 00:11:47;;;;;;;;;;;;;;;;;;5045938;28;19908;-66
2021/01/16 00:14:13;;;;;;;;;;;;;;;;;;5045315;28;20471;-64
2021/01/16 00:16:39;;;;;;;;;;;;;;;;;;5049162;28;20122;-64
2021/01/16 00:19:05;;;;;;;;;;;;;;;;;;5052942;28;19924;-67
2021/01/16 00:21:31;;;;;;;;;;;;;;;;;;5048882;28;19909;-68
2021/01/16 00:23:57;;;;;;;;;;;;;;;;;;5049208;28;19909;-64
2021/01/16 00:26:23;;;;;;;;;;;;;;;;;;5051666;28;19909;-67
2021/01/16 00:28:49;;;;;;;;;;;;;;;;;;5043587;28;19908;-64
2021/01/16 00:31:15;;;;;;;;;;;;;;;;;;5051000;28;19909;-69
2021/01/16 00:33:42;;;;;;;;;;;;;;;;;;5054628;28;19962;-64
2021/01/16 00:36:08;;;;;;;;;;;;;;;;;;5052964;28;19922;-64
2021/01/16 00:38:34;;;;;;;;;;;;;;;;;;5052214;28;20348;-67
2021/01/16 00:41:00;;;;;;;;;;;;;;;;;;5051942;28;19908;-66
2021/01/16 00:43:26;;;;;;;;;;;;;;;;;;5054318;28;19912;-67
2021/01/16 00:45:52;;;;;;;;;;;;;;;;;;5047210;28;19909;-65
2021/01/16 00:48:18;;;;;;;;;;;;;;;;;;5044275;28;20372;-71
2021/01/16 00:50:44;;;;;;;;;;;;;;;;;;5035229;28;19917;-66
2021/01/16 00:53:09;;;;;;;;;;;;;;;;;;5048246;28;20375;-64
2021/01/16 00:55:35;;;;;;;;;;;;;;;;;;5050186;28;20011;-65
2021/01/16 00:58:01;;;;;;;;;;;;;;;;;;5051532;28;19921;-65
2021/01/16 01:00:27;;;;;;;;;;;;;;;;;;5053134;28;19904;-64
2021/01/16 01:02:53;;;;;;;;;;;;;;;;;;5053412;28;19990;-64
2021/01/16 01:05:19;;;;;;;;;;;;;;;;;;5045014;28;19916;-65
2021/01/16 01:07:45;;;;;;;;;;;;;;;;;;5051305;28;20070;-64
2021/01/16 01:10:11;;;;;;;;;;;;;;;;;;5061854;28;20378;-65
2021/01/16 01:12:37;;;;;;;;;;;;;;;;;;5054447;28;19905;-65
2021/01/16 01:15:02;;;;;;;;;;;;;;;;;;5055202;28;19931;-65
2021/01/16 01:17:28;;;;;;;;;;;;;;;;;;5051134;28;19916;-65
2021/01/16 01:19:54;;;;;;;;;;;;;;;;;;5050744;28;20010;-64
2021/01/16 01:22:20;;;;;;;;;;;;;;;;;;5049559;28;19916;-65
2021/01/16 01:24:46;;;;;;;;;;;;;;;;;;5052348;28;19916;-64
2021/01/16 01:27:12;;;;;;;;;;;;;;;;;;5052068;28;19931;-65
2021/01/16 01:29:38;;;;;;;;;;;;;;;;;;5056373;28;19947;-66
2021/01/16 01:32:04;;;;;;;;;;;;;;;;;;5055205;28;19908;-65
2021/01/16 01:34:30;;;;;;;;;;;;;;;;;;5049042;28;19908;-66
2021/01/16 01:36:56;;;;;;;;;;;;;;;;;;5049311;28;20007;-64
2021/01/16 01:39:22;;;;;;;;;;;;;;;;;;5050051;28;19962;-65
2021/01/16 01:41:47;;;;;;;;;;;;;;;;;;5049513;28;19939;-67
2021/01/16 01:44:13;;;;;;;;;;;;;;;;;;5045841;28;19908;-65
2021/01/16 01:46:39;;;;;;;;;;;;;;;;;;5052995;28;19909;-65
2021/01/16 01:49:06;;;;;;;;;;;;;;;;;;5047496;28;19958;-66
2021/01/16 01:51:32;;;;;;;;;;;;;;;;;;5045034;28;20257;-65
2021/01/16 01:53:58;;;;;;;;;;;;;;;;;;5048536;28;19999;-65
2021/01/16 01:56:24;;;;;;;;;;;;;;;;;;5051367;28;19920;-66
2021/01/16 01:58:50;;;;;;;;;;;;;;;;;;5049875;28;19928;-64
2021/01/16 02:01:16;;;;;;;;;;;;;;;;;;5058220;28;19931;-64
2021/01/16 02:03:42;;;;;;;;;;;;;;;;;;5047279;28;19908;-64
2021/01/16 02:06:07;;;;;;;;;;;;;;;;;;5059591;28;19908;-64
2021/01/16 02:08:33;;;;;;;;;;;;;;;;;;5051114;28;19940;-65
2021/01/16 02:10:59;;;;;;;;;;;;;;;;;;5046317;28;19909;-65
2021/01/16 02:13:25;;;;;;;;;;;;;;;;;;5052325;28;19939;-64
2021/01/16 02:15:51;;;;;;;;;;;;;;;;;;5049029;28;19916;-65
2021/01/16 02:18:17;;;;;;;;;;;;;;;;;;5046072;28;19925;-65
2021/01/16 02:20:43;;;;;;;;;;;;;;;;;;5051427;28;19916;-64
2021/01/16 02:23:09;;;;;;;;;;;;;;;;;;5047590;28;19908;-66
2021/01/16 02:25:35;;;;;;;;;;;;;;;;;;5053579;28;20340;-64
2021/01/16 02:28:01;;;;;;;;;;;;;;;;;;5050093;28;19916;-63
2021/01/16 02:30:27;;;;;;;;;;;;;;;;;;5047842;28;19912;-63
2021/01/16 02:32:53;;;;;;;;;;;;;;;;;;5050144;28;19924;-64
2021/01/16 02:35:19;;;;;;;;;;;;;;;;;;5047457;28;19915;-63
2021/01/16 02:37:45;;;;;;;;;;;;;;;;;;5046226;28;19978;-63
2021/01/16 02:40:11;;;;;;;;;;;;;;;;;;5049185;28;19962;-64
2021/01/16 02:42:37;;;;;;;;;;;;;;;;;;5051393;28;19905;-65
2021/01/16 02:50:23;;;;;;;;;;;;;;;;;;5021616;28;19971;-67
2021/01/16 02:55:24;;;;;;;;;;;;;;;;;;4598917;26;20047;-66
2021/01/16 02:57:51;;;;;;;;;;;;;;;;;;4999797;28;20076;-66
2021/01/16 03:00:17;;;;;;;;;;;;;;;;;;5002617;28;20413;-69
2021/01/16 03:02:43;;;;;;;;;;;;;;;;;;5006365;28;19910;-66
2021/01/16 03:05:09;;;;;;;;;;;;;;;;;;5007656;28;19909;-66
2021/01/16 03:07:34;;;;;;;;;;;;;;;;;;5006537;28;20272;-66
2021/01/16 03:10:00;;;;;;;;;;;;;;;;;;5007360;28;20325;-66
2021/01/16 03:12:26;;;;;;;;;;;;;;;;;;5007069;28;19992;-66
2021/01/16 03:14:52;;;;;;;;;;;;;;;;;;4993685;28;20332;-68
2021/01/16 03:17:18;;;;;;;;;;;;;;;;;;5007070;28;19972;-66
2021/01/16 03:19:44;;;;;;;;;;;;;;;;;;5007006;28;19910;-66
2021/01/16 03:22:10;;;;;;;;;;;;;;;;;;5009503;28;19955;-67
2021/01/16 03:24:35;;;;;;;;;;;;;;;;;;5003708;28;19914;-66
2021/01/16 03:27:01;;;;;;;;;;;;;;;;;;5001795;28;20066;-67
2021/01/16 03:29:27;;;;;;;;;;;;;;;;;;4995344;28;19905;-66
2021/01/16 03:31:53;;;;;;;;;;;;;;;;;;5010178;28;19959;-66
2021/01/16 03:34:19;;;;;;;;;;;;;;;;;;5013073;28;19909;-66
2021/01/16 03:36:45;;;;;;;;;;;;;;;;;;5006521;28;19914;-66
2021/01/16 03:39:11;;;;;;;;;;;;;;;;;;5013918;28;20319;-69
2021/01/16 03:41:37;;;;;;;;;;;;;;;;;;5012098;28;19905;-68
2021/01/16 03:44:02;;;;;;;;;;;;;;;;;;5016852;28;19916;-67
2021/01/16 03:46:28;;;;;;;;;;;;;;;;;;5015064;28;19909;-66
2021/01/16 03:48:54;;;;;;;;;;;;;;;;;;5010264;28;19913;-68
2021/01/16 03:51:20;;;;;;;;;;;;;;;;;;4997810;28;20381;-72
2021/01/16 03:53:47;;;;;;;;;;;;;;;;;;5005417;28;19909;-68
2021/01/16 03:56:13;;;;;;;;;;;;;;;;;;4991731;28;19976;-72
2021/01/16 03:58:39;;;;;;;;;;;;;;;;;;4993218;28;19926;-70
2021/01/16 04:01:05;;;;;;;;;;;;;;;;;;4987949;28;20012;-71
2021/01/16 04:03:31;;;;;;;;;;;;;;;;;;4993735;28;20424;-73
2021/01/16 04:05:57;;;;;;;;;;;;;;;;;;4990928;28;19960;-71
2021/01/16 04:08:23;;;;;;;;;;;;;;;;;;4994376;28;19910;-71
2021/01/16 04:10:48;;;;;;;;;;;;;;;;;;4982940;28;19961;-70
2021/01/16 04:13:14;;;;;;;;;;;;;;;;;;4983797;28;19965;-71
2021/01/16 04:15:40;;;;;;;;;;;;;;;;;;4994177;28;19914;-73
2021/01/16 04:18:06;;;;;;;;;;;;;;;;;;4994323;28;19924;-72
2021/01/16 04:20:32;;;;;;;;;;;;;;;;;;4992703;28;19910;-71
2021/01/16 04:22:58;;;;;;;;;;;;;;;;;;4995037;28;19913;-73
2021/01/16 04:25:24;;;;;;;;;;;;;;;;;;4991871;28;19967;-71
2021/01/16 04:27:50;;;;;;;;;;;;;;;;;;4993816;28;19910;-72
2021/01/16 04:30:16;;;;;;;;;;;;;;;;;;4987586;28;20426;-70
2021/01/16 04:32:41;;;;;;;;;;;;;;;;;;4989356;28;19910;-70
2021/01/16 04:35:07;;;;;;;;;;;;;;;;;;4993071;28;19960;-70
2021/01/16 04:37:33;;;;;;;;;;;;;;;;;;4994323;28;20282;-72
2021/01/16 04:39:59;;;;;;;;;;;;;;;;;;4987636;28;19914;-74
2021/01/16 04:42:25;;;;;;;;;;;;;;;;;;4994992;28;19906;-69
2021/01/16 04:44:51;;;;;;;;;;;;;;;;;;4992850;28;19918;-73
2021/01/16 04:47:17;;;;;;;;;;;;;;;;;;4994142;28;19952;-71
2021/01/16 04:49:43;;;;;;;;;;;;;;;;;;4990299;28;20375;-71
2021/01/16 04:52:08;;;;;;;;;;;;;;;;;;4993534;28;20892;-69
2021/01/16 04:54:34;;;;;;;;;;;;;;;;;;4995069;28;19916;-71
2021/01/16 04:57:00;;;;;;;;;;;;;;;;;;4990121;28;19921;-70
2021/01/16 04:59:26;;;;;;;;;;;;;;;;;;4990006;28;19909;-69
2021/01/16 05:01:52;;;;;;;;;;;;;;;;;;4992271;28;19957;-73
2021/01/16 05:04:18;;;;;;;;;;;;;;;;;;4994324;28;19910;-68
2021/01/16 05:06:44;;;;;;;;;;;;;;;;;;4991042;28;20447;-70
2021/01/16 05:09:09;;;;;;;;;;;;;;;;;;4993545;28;20004;-69
2021/01/16 05:11:35;;;;;;;;;;;;;;;;;;4994933;28;19964;-72
2021/01/16 05:14:01;;;;;;;;;;;;;;;;;;4995674;28;20309;-73
2021/01/16 05:16:27;;;;;;;;;;;;;;;;;;4986914;28;20397;-71
2021/01/16 05:18:53;;;;;;;;;;;;;;;;;;4994882;28;19916;-70
2021/01/16 05:21:19;;;;;;;;;;;;;;;;;;4992774;28;19910;-66
2021/01/16 05:23:45;;;;;;;;;;;;;;;;;;4995296;28;20373;-73
2021/01/16 05:26:11;;;;;;;;;;;;;;;;;;4996399;28;19914;-70
2021/01/16 05:28:36;;;;;;;;;;;;;;;;;;4994191;28;19920;-72
2021/01/16 05:31:02;;;;;;;;;;;;;;;;;;4980175;28;19909;-72
2021/01/16 05:33:28;;;;;;;;;;;;;;;;;;4994541;28;19940;-73
2021/01/16 05:35:54;;;;;;;;;;;;;;;;;;4992001;28;19949;-70
2021/01/16 05:38:20;;;;;;;;;;;;;;;;;;4992453;28;20284;-72
2021/01/16 05:40:46;;;;;;;;;;;;;;;;;;4985104;28;20376;-70
2021/01/16 05:43:12;;;;;;;;;;;;;;;;;;4993086;28;19910;-71
2021/01/16 05:45:38;;;;;;;;;;;;;;;;;;4991883;28;19956;-69
2021/01/16 05:48:03;;;;;;;;;;;;;;;;;;4990768;28;19997;-73
2021/01/16 05:50:29;;;;;;;;;;;;;;;;;;4991725;28;19909;-71
2021/01/16 05:52:55;;;;;;;;;;;;;;;;;;4995172;28;19963;-71
2021/01/16 05:55:21;;;;;;;;;;;;;;;;;;4991413;28;19956;-74
2021/01/16 05:57:47;;;;;;;;;;;;;;;;;;4993717;28;19922;-73
2021/01/16 06:00:13;;;;;;;;;;;;;;;;;;4991673;28;19973;-73
2021/01/16 06:02:39;;;;;;;;;;;;;;;;;;4993484;28;19906;-71
2021/01/16 06:05:05;;;;;;;;;;;;;;;;;;4989667;28;19922;-69
2021/01/16 06:07:30;;;;;;;;;;;;;;;;;;4989481;28;20293;-71
2021/01/16 06:09:56;;;;;;;;;;;;;;;;;;4992384;28;19913;-72
2021/01/16 06:12:22;;;;;;;;;;;;;;;;;;4976524;28;19957;-73
2021/01/16 06:14:48;;;;;;;;;;;;;;;;;;4994002;28;19965;-71
2021/01/16 06:17:14;;;;;;;;;;;;;;;;;;4987801;28;19917;-71
2021/01/16 06:19:40;;;;;;;;;;;;;;;;;;4993922;28;20277;-72
2021/01/16 06:22:06;;;;;;;;;;;;;;;;;;4987088;28;19917;-71
2021/01/16 06:24:32;;;;;;;;;;;;;;;;;;4993609;28;20262;-72
2021/01/16 06:26:58;;;;;;;;;;;;;;;;;;4985113;28;19921;-73
2021/01/16 06:29:24;;;;;;;;;;;;;;;;;;4993953;28;19912;-72
2021/01/16 06:31:50;;;;;;;;;;;;;;;;;;4988818;28;19920;-68
2021/01/16 06:34:16;;;;;;;;;;;;;;;;;;4999196;28;20008;-71
2021/01/16 06:36:42;;;;;;;;;;;;;;;;;;4989655;28;19913;-71
2021/01/16 06:39:08;;;;;;;;;;;;;;;;;;4990287;28;20024;-71
2021/01/16 06:41:34;;;;;;;;;;;;;;;;;;4987972;28;19910;-70
2021/01/16 06:44:00;;;;;;;;;;;;;;;;;;4995127;28;19996;-70
2021/01/16 06:46:26;;;;;;;;;;;;;;;;;;4982787;28;19914;-67
2021/01/16 06:48:52;;;;;;;;;;;;;;;;;;4987776;28;19909;-71
2021/01/16 06:51:18;;;;;;;;;;;;;;;;;;4991495;28;19910;-71
2021/01/16 06:53:43;;;;;;;;;;;;;;;;;;4993456;28;19972;-72
2021/01/16 06:56:09;;;;;;;;;;;;;;;;;;4983851;28;20107;-69
2021/01/16 06:58:35;;;;;;;;;;;;;;;;;;4992921;28;19914;-70
2021/01/16 07:01:01;;;;;;;;;;;;;;;;;;4991194;28;19910;-67
2021/01/16 07:03:27;;;;;;;;;;;;;;;;;;4987175;28;19917;-68
2021/01/16 07:05:53;;;;;;;;;;;;;;;;;;4987687;28;19914;-71
2021/01/16 07:08:19;;;;;;;;;;;;;;;;;;4992082;28;19916;-70
2021/01/16 07:10:45;;;;;;;;;;;;;;;;;;4992839;28;20509;-72
2021/01/16 07:13:11;;;;;;;;;;;;;;;;;;4993565;28;19943;-70
2021/01/16 07:15:37;;;;;;;;;;;;;;;;;;4989292;28;19910;-69
2021/01/16 07:18:03;;;;;;;;;;;;;;;;;;4996660;28;19917;-72
2021/01/16 07:20:29;;;;;;;;;;;;;;;;;;4993129;28;19917;-71
2021/01/16 07:22:54;;;;;;;;;;;;;;;;;;4994273;28;19933;-70
2021/01/16 07:25:21;;;;;;;;;;;;;;;;;;4986369;28;19962;-70
2021/01/16 07:27:47;;;;;;;;;;;;;;;;;;5000407;28;20008;-72
2021/01/16 07:30:13;;;;;;;;;;;;;;;;;;4996040;28;20437;-72
2021/01/16 07:32:39;;;;;;;;;;;;;;;;;;4995218;28;19914;-71
2021/01/16 07:35:05;;;;;;;;;;;;;;;;;;4987530;28;19914;-71
2021/01/16 07:37:30;;;;;;;;;;;;;;;;;;4995017;28;19984;-70
2021/01/16 07:39:56;;;;;;;;;;;;;;;;;;4997212;28;19906;-71
2021/01/16 07:42:22;;;;;;;;;;;;;;;;;;4994769;28;19910;-70
2021/01/16 07:44:48;;;;;;;;;;;;;;;;;;4991059;28;19935;-71
2021/01/16 07:47:14;;;;;;;;;;;;;;;;;;4994081;28;19980;-71
2021/01/16 07:49:40;;;;;;;;;;;;;;;;;;4995632;28;19910;-68
2021/01/16 07:52:07;;;;;;;;;;;;;;;;;;4994520;28;19989;-69
2021/01/16 07:54:33;;;;;;;;;;;;;;;;;;4996021;28;19910;-65
2021/01/16 07:56:59;;;;;;;;;;;;;;;;;;4984986;28;20024;-71
2021/01/16 07:59:25;;;;;;;;;;;;;;;;;;4996263;28;19944;-70
2021/01/16 08:01:51;;;;;;;;;;;;;;;;;;4994042;28;19920;-71
2021/01/16 08:04:16;;;;;;;;;;;;;;;;;;4991254;28;19910;-67
2021/01/16 08:06:42;;;;;;;;;;;;;;;;;;4985690;28;19910;-72
2021/01/16 08:09:08;;;;;;;;;;;;;;;;;;4996348;28;19913;-73
2021/01/16 08:11:34;;;;;;;;;;;;;;;;;;4988872;28;20021;-71
2021/01/16 08:14:00;;;;;;;;;;;;;;;;;;4993997;28;19906;-73
2021/01/16 08:16:26;;;;;;;;;;;;;;;;;;4991285;28;20325;-72
2021/01/16 08:18:53;;;;;;;;;;;;;;;;;;4996388;28;19910;-66
2021/01/16 08:21:19;;;;;;;;;;;;;;;;;;4994554;28;19913;-66
2021/01/16 08:23:46;;;;;;;;;;;;;;;;;;4995171;28;19972;-66
2021/01/16 08:26:12;;;;;;;;;;;;;;;;;;4992654;28;19941;-67
2021/01/16 08:28:38;;;;;;;;;;;;;;;;;;4995790;28;19910;-67
2021/01/16 08:31:04;;;;;;;;;;;;;;;;;;4992617;28;19916;-66
2021/01/16 08:33:30;;;;;;;;;;;;;;;;;;4995344;28;20320;-66
2021/01/16 08:35:56;;;;;;;;;;;;;;;;;;4996131;28;19906;-66
2021/01/16 08:38:22;;;;;;;;;;;;;;;;;;4992628;28;19918;-66
2021/01/16 08:40:49;;;;;;;;;;;;;;;;;;4993767;28;19945;-66
2021/01/16 08:43:15;;;;;;;;;;;;;;;;;;4995422;28;19957;-65
2021/01/16 08:45:41;;;;;;;;;;;;;;;;;;4971915;28;20362;-67
2021/01/16 08:48:07;;;;;;;;;;;;;;;;;;4988118;28;19909;-65
2021/01/16 08:50:33;;;;;;;;;;;;;;;;;;4991554;28;19910;-65
2021/01/16 08:52:59;;;;;;;;;;;;;;;;;;4993321;28;19992;-65
2021/01/16 08:55:25;;;;;;;;;;;;;;;;;;4993867;28;19914;-65
2021/01/16 08:57:51;;;;;;;;;;;;;;;;;;4994093;28;19965;-66
2021/01/16 09:00:17;;;;;;;;;;;;;;;;;;4994665;28;19910;-66
2021/01/16 09:02:43;;;;;;;;;;;;;;;;;;4992189;28;20000;-65
2021/01/16 09:05:09;;;;;;;;;;;;;;;;;;4989962;28;19914;-66
2021/01/16 09:07:34;;;;;;;;;;;;;;;;;;4992104;28;19945;-66
2021/01/16 09:10:00;;;;;;;;;;;;;;;;;;4994852;28;19936;-66
2021/01/16 09:12:26;;;;;;;;;;;;;;;;;;4990401;28;19910;-66
2021/01/16 09:14:52;;;;;;;;;;;;;;;;;;4975987;28;19910;-66
2021/01/16 09:17:19;;;;;;;;;;;;;;;;;;4984625;28;19980;-65
2021/01/16 09:19:45;;;;;;;;;;;;;;;;;;4994747;28;19949;-65
2021/01/16 09:22:10;;;;;;;;;;;;;;;;;;4992221;28;19945;-66
2021/01/16 09:24:36;;;;;;;;;;;;;;;;;;4992790;28;19910;-67
2021/01/16 09:27:02;;;;;;;;;;;;;;;;;;4987315;28;20423;-67
2021/01/16 09:29:28;;;;;;;;;;;;;;;;;;4990919;28;19918;-68
2021/01/16 09:31:54;;;;;;;;;;;;;;;;;;4992213;28;19909;-67
2021/01/16 09:34:20;;;;;;;;;;;;;;;;;;4990082;28;20337;-66
2021/01/16 09:36:46;;;;;;;;;;;;;;;;;;4981276;28;20295;-66
2021/01/16 09:39:12;;;;;;;;;;;;;;;;;;4983770;28;19910;-66
2021/01/16 09:41:38;;;;;;;;;;;;;;;;;;4990507;28;20084;-66
2021/01/16 09:44:04;;;;;;;;;;;;;;;;;;4994329;28;19914;-66
2021/01/16 09:46:30;;;;;;;;;;;;;;;;;;4985460;28;20031;-66
2021/01/16 09:48:56;;;;;;;;;;;;;;;;;;4992771;28;19909;-67
2021/01/16 09:51:21;;;;;;;;;;;;;;;;;;4982151;28;19916;-66
2021/01/16 09:53:47;;;;;;;;;;;;;;;;;;4988189;28;20000;-66
2021/01/16 09:56:13;;;;;;;;;;;;;;;;;;4990751;28;19929;-65
2021/01/16 09:58:42;;;;;;;;;;;;;;;;;;4989936;28;20293;-65
2021/01/16 10:01:08;;;;;;;;;;;;;;;;;;4990850;28;19916;-65
2021/01/16 10:03:34;;;;;;;;;;;;;;;;;;4993522;28;20000;-66
2021/01/16 10:06:00;;;;;;;;;;;;;;;;;;4985500;28;19910;-67
2021/01/16 10:08:25;;;;;;;;;;;;;;;;;;4989649;28;19972;-65
2021/01/16 10:10:51;;;;;;;;;;;;;;;;;;4993524;28;20004;-67
2021/01/16 10:13:17;;;;;;;;;;;;;;;;;;4992152;28;19913;-68
2021/01/16 10:15:43;;;;;;;;;;;;;;;;;;4990930;28;19905;-65
2021/01/16 10:18:09;;;;;;;;;;;;;;;;;;4990025;28;20365;-66
2021/01/16 10:20:35;;;;;;;;;;;;;;;;;;4991507;28;19905;-65
2021/01/16 10:23:01;;;;;;;;;;;;;;;;;;4991707;28;19909;-65
2021/01/16 10:25:26;;;;;;;;;;;;;;;;;;4989773;28;19932;-65
2021/01/16 10:27:52;;;;;;;;;;;;;;;;;;4990784;28;19909;-64
2021/01/16 10:30:18;;;;;;;;;;;;;;;;;;4993146;28;20385;-64
2021/01/16 10:32:44;;;;;;;;;;;;;;;;;;4990661;28;19910;-65
2021/01/16 10:35:10;;;;;;;;;;;;;;;;;;4991560;28;19913;-65
2021/01/16 10:37:36;;;;;;;;;;;;;;;;;;4974220;28;19918;-64
2021/01/16 10:40:02;;;;;;;;;;;;;;;;;;4990208;28;19964;-66
2021/01/16 10:42:28;;;;;;;;;;;;;;;;;;4978534;28;20354;-66
2021/01/16 10:44:54;;;;;;;;;;;;;;;;;;4993188;28;19906;-66
2021/01/16 10:47:20;;;;;;;;;;;;;;;;;;4991356;28;19917;-65
2021/01/16 10:49:45;;;;;;;;;;;;;;;;;;4993555;28;20289;-67
2021/01/16 10:52:11;;;;;;;;;;;;;;;;;;4989282;28;20008;-66
2021/01/16 10:54:37;;;;;;;;;;;;;;;;;;4992857;28;19917;-67
2021/01/16 10:57:03;;;;;;;;;;;;;;;;;;4990984;28;19972;-66
2021/01/16 10:59:29;;;;;;;;;;;;;;;;;;4992574;28;19920;-66
2021/01/16 11:01:55;;;;;;;;;;;;;;;;;;4989517;28;19996;-65
2021/01/16 11:04:21;;;;;;;;;;;;;;;;;;4990261;28;19914;-65
2021/01/16 11:06:47;;;;;;;;;;;;;;;;;;4978141;28;20246;-65
2021/01/16 11:09:13;;;;;;;;;;;;;;;;;;4991155;28;19920;-66
2021/01/16 11:11:38;;;;;;;;;;;;;;;;;;4983622;28;19913;-66
2021/01/16 11:14:04;;;;;;;;;;;;;;;;;;4991538;28;20064;-66
2021/01/16 11:16:30;;;;;;;;;;;;;;;;;;4990673;28;19940;-65
2021/01/16 11:18:56;;;;;;;;;;;;;;;;;;4992731;28;19910;-66
2021/01/16 11:21:22;;;;;;;;;;;;;;;;;;4983803;28;20008;-65
2021/01/16 11:23:48;;;;;;;;;;;;;;;;;;4991998;28;20004;-65
2021/01/16 11:26:14;;;;;;;;;;;;;;;;;;4990562;28;20440;-65
2021/01/16 11:28:40;;;;;;;;;;;;;;;;;;4994793;28;19910;-65
2021/01/16 11:31:06;;;;;;;;;;;;;;;;;;4987636;28;20330;-65
2021/01/16 11:33:31;;;;;;;;;;;;;;;;;;4984971;28;20377;-65
2021/01/16 11:35:57;;;;;;;;;;;;;;;;;;4990877;28;19925;-65
2021/01/16 11:38:23;;;;;;;;;;;;;;;;;;4988292;28;20324;-65
2021/01/16 11:40:49;;;;;;;;;;;;;;;;;;4991065;28;19914;-66
2021/01/16 11:43:15;;;;;;;;;;;;;;;;;;4987835;28;20056;-66
2021/01/16 11:45:41;;;;;;;;;;;;;;;;;;4981057;28;19932;-65
2021/01/16 11:48:07;;;;;;;;;;;;;;;;;;4987896;28;19910;-66
2021/01/16 11:50:33;;;;;;;;;;;;;;;;;;4990826;28;19913;-66
2021/01/16 11:52:58;;;;;;;;;;;;;;;;;;4989716;28;20269;-70
2021/01/16 11:55:24;;;;;;;;;;;;;;;;;;4992610;28;20021;-65
2021/01/16 11:57:50;;;;;;;;;;;;;;;;;;4990022;28;19925;-65
2021/01/16 12:00:16;;;;;;;;;;;;;;;;;;4997185;28;19988;-73
2021/01/16 12:02:42;;;;;;;;;;;;;;;;;;4990506;28;20000;-72
2021/01/16 12:05:08;;;;;;;;;;;;;;;;;;4978524;28;19906;-68
2021/01/16 12:07:34;;;;;;;;;;;;;;;;;;4994866;28;19956;-73
2021/01/16 12:10:00;;;;;;;;;;;;;;;;;;4995996;28;19949;-69
2021/01/16 12:12:25;;;;;;;;;;;;;;;;;;4992996;28;19910;-73
2021/01/16 12:14:51;;;;;;;;;;;;;;;;;;4995434;28;20409;-74
2021/01/16 12:17:19;;;;;;;;;;;;;;;;;;4991479;28;19917;-72
2021/01/16 12:19:45;;;;;;;;;;;;;;;;;;5003049;28;19912;-73
2021/01/16 12:22:11;;;;;;;;;;;;;;;;;;4994737;28;19906;-70
2021/01/16 12:24:37;;;;;;;;;;;;;;;;;;4993479;28;19920;-72
2021/01/16 12:27:03;;;;;;;;;;;;;;;;;;4985224;28;19914;-71
2021/01/16 12:29:29;;;;;;;;;;;;;;;;;;5003226;28;19909;-71
2021/01/16 12:31:55;;;;;;;;;;;;;;;;;;4995025;28;19909;-75
2021/01/16 12:34:21;;;;;;;;;;;;;;;;;;4995951;28;19917;-75
2021/01/16 12:36:46;;;;;;;;;;;;;;;;;;4990744;28;20330;-74
2021/01/16 12:39:12;;;;;;;;;;;;;;;;;;5000601;28;19999;-66
2021/01/16 12:41:38;;;;;;;;;;;;;;;;;;4997515;28;20190;-67
2021/01/16 12:44:04;;;;;;;;;;;;;;;;;;5003827;28;20345;-66
2021/01/16 12:46:30;;;;;;;;;;;;;;;;;;5000430;28;19910;-66
2021/01/16 12:48:56;;;;;;;;;;;;;;;;;;4999804;28;20431;-66
2021/01/16 12:51:22;;;;;;;;;;;;;;;;;;4995080;28;20000;-66
2021/01/16 12:53:48;;;;;;;;;;;;;;;;;;5002092;28;19976;-66
2021/01/16 12:56:13;;;;;;;;;;;;;;;;;;4997922;28;20409;-66
2021/01/16 12:58:39;;;;;;;;;;;;;;;;;;4991885;28;20012;-66
2021/01/16 13:01:05;;;;;;;;;;;;;;;;;;4993000;28;19925;-66
2021/01/16 13:03:31;;;;;;;;;;;;;;;;;;4993105;28;19963;-66
2021/01/16 13:05:57;;;;;;;;;;;;;;;;;;4992379;28;19918;-66
2021/01/16 13:08:23;;;;;;;;;;;;;;;;;;5000365;28;19971;-66
2021/01/16 13:10:49;;;;;;;;;;;;;;;;;;4994483;28;19909;-66
2021/01/16 13:13:14;;;;;;;;;;;;;;;;;;4985812;28;20362;-66
2021/01/16 13:15:40;;;;;;;;;;;;;;;;;;4976569;28;19961;-66
2021/01/16 13:18:06;;;;;;;;;;;;;;;;;;4993145;28;19924;-65
2021/01/16 13:20:32;;;;;;;;;;;;;;;;;;4993568;28;19955;-66
2021/01/16 13:22:58;;;;;;;;;;;;;;;;;;4994530;28;19910;-66
2021/01/16 13:25:24;;;;;;;;;;;;;;;;;;4990472;28;20015;-66
2021/01/16 13:27:50;;;;;;;;;;;;;;;;;;4992727;28;19910;-66
2021/01/16 13:30:16;;;;;;;;;;;;;;;;;;4992868;28;19937;-67
2021/01/16 13:32:42;;;;;;;;;;;;;;;;;;4989201;28;19920;-67
2021/01/16 13:35:07;;;;;;;;;;;;;;;;;;4994541;28;20350;-66
2021/01/16 13:37:33;;;;;;;;;;;;;;;;;;4975407;28;20333;-66
2021/01/16 13:39:59;;;;;;;;;;;;;;;;;;4995164;28;19913;-66
2021/01/16 13:42:25;;;;;;;;;;;;;;;;;;4991914;28;20009;-67
2021/01/16 13:44:51;;;;;;;;;;;;;;;;;;4995008;28;19917;-67
2021/01/16 13:47:17;;;;;;;;;;;;;;;;;;4989061;28;19905;-68
2021/01/16 13:49:43;;;;;;;;;;;;;;;;;;4994633;28;19968;-66
2021/01/16 13:52:09;;;;;;;;;;;;;;;;;;4975723;28;19914;-68
2021/01/16 13:54:36;;;;;;;;;;;;;;;;;;4993672;28;20350;-65
2021/01/16 13:57:02;;;;;;;;;;;;;;;;;;4995597;28;19925;-66
2021/01/16 13:59:28;;;;;;;;;;;;;;;;;;5006976;28;20412;-67
2021/01/16 14:01:54;;;;;;;;;;;;;;;;;;4989336;28;19910;-69
2021/01/16 14:04:20;;;;;;;;;;;;;;;;;;4990418;28;19913;-67
2021/01/16 14:06:46;;;;;;;;;;;;;;;;;;4990991;28;19941;-68
2021/01/16 14:09:12;;;;;;;;;;;;;;;;;;4994591;28;20361;-69
2021/01/16 14:11:38;;;;;;;;;;;;;;;;;;4987005;28;19910;-68
2021/01/16 14:14:04;;;;;;;;;;;;;;;;;;4994072;28;19912;-68
2021/01/16 14:16:29;;;;;;;;;;;;;;;;;;4992003;28;19917;-67
2021/01/16 14:18:55;;;;;;;;;;;;;;;;;;4989725;28;19956;-70
2021/01/16 14:21:21;;;;;;;;;;;;;;;;;;4990245;28;19916;-67
2021/01/16 14:23:47;;;;;;;;;;;;;;;;;;4990841;28;19910;-66
2021/01/16 14:26:13;;;;;;;;;;;;;;;;;;4990036;28;20366;-68
2021/01/16 14:28:39;;;;;;;;;;;;;;;;;;4991035;28;19913;-66
2021/01/16 14:31:05;;;;;;;;;;;;;;;;;;4988416;28;20016;-67
2021/01/16 14:33:31;;;;;;;;;;;;;;;;;;4992073;28;19910;-67
2021/01/16 14:35:56;;;;;;;;;;;;;;;;;;4987632;28;19941;-67
2021/01/16 14:38:22;;;;;;;;;;;;;;;;;;4990511;28;19917;-69
2021/01/16 14:40:48;;;;;;;;;;;;;;;;;;4990079;28;19965;-69
2021/01/16 14:43:16;;;;;;;;;;;;;;;;;;4991044;28;20373;-69
2021/01/16 14:45:42;;;;;;;;;;;;;;;;;;4991148;28;19913;-70
2021/01/16 14:48:08;;;;;;;;;;;;;;;;;;4992906;28;19910;-68
2021/01/16 14:50:34;;;;;;;;;;;;;;;;;;4993637;28;20296;-69
2021/01/16 14:53:00;;;;;;;;;;;;;;;;;;4990445;28;21014;-70
2021/01/16 14:55:26;;;;;;;;;;;;;;;;;;4990185;28;20028;-69
2021/01/16 14:57:52;;;;;;;;;;;;;;;;;;4989844;28;19917;-67
2021/01/16 15:00:18;;;;;;;;;;;;;;;;;;4976328;28;19955;-67
2021/01/16 15:02:44;;;;;;;;;;;;;;;;;;4991305;28;19914;-70
2021/01/16 15:05:10;;;;;;;;;;;;;;;;;;4987895;28;19909;-67
2021/01/16 15:07:36;;;;;;;;;;;;;;;;;;4987960;28;19917;-68
2021/01/16 15:10:02;;;;;;;;;;;;;;;;;;4994242;28;20000;-68
2021/01/16 15:12:28;;;;;;;;;;;;;;;;;;4991284;28;20289;-69
2021/01/16 15:14:53;;;;;;;;;;;;;;;;;;4992252;28;19909;-67
2021/01/16 15:17:19;;;;;;;;;;;;;;;;;;4989946;28;19997;-68
2021/01/16 15:19:46;;;;;;;;;;;;;;;;;;4990937;28;19924;-68
2021/01/16 15:22:11;;;;;;;;;;;;;;;;;;4990736;28;19910;-68
2021/01/16 15:24:37;;;;;;;;;;;;;;;;;;4993178;28;20156;-68
2021/01/16 15:27:03;;;;;;;;;;;;;;;;;;4992165;28;20016;-69
2021/01/16 15:29:29;;;;;;;;;;;;;;;;;;4992020;28;19914;-67
2021/01/16 15:31:56;;;;;;;;;;;;;;;;;;4991919;28;19910;-67
2021/01/16 15:34:23;;;;;;;;;;;;;;;;;;4991895;28;20277;-69
2021/01/16 15:36:49;;;;;;;;;;;;;;;;;;4994061;28;19992;-75
2021/01/16 15:39:14;;;;;;;;;;;;;;;;;;4992350;28;20401;-74
2021/01/16 15:41:40;;;;;;;;;;;;;;;;;;4991131;28;19916;-70
2021/01/16 15:44:06;;;;;;;;;;;;;;;;;;4990700;28;19909;-69
2021/01/16 15:46:32;;;;;;;;;;;;;;;;;;4996796;28;19905;-71
2021/01/16 15:48:58;;;;;;;;;;;;;;;;;;4992803;28;19906;-75
2021/01/16 15:51:24;;;;;;;;;;;;;;;;;;4992176;28;20444;-68
2021/01/16 15:53:50;;;;;;;;;;;;;;;;;;4993707;28;19918;-70
2021/01/16 15:56:15;;;;;;;;;;;;;;;;;;4990548;28;20016;-68
2021/01/16 15:58:41;;;;;;;;;;;;;;;;;;4989044;28;20423;-70
2021/01/16 16:01:07;;;;;;;;;;;;;;;;;;4990509;28;19909;-72
2021/01/16 16:03:33;;;;;;;;;;;;;;;;;;4988791;28;19909;-69
2021/01/16 16:05:59;;;;;;;;;;;;;;;;;;4991445;28;20398;-73
2021/01/16 16:08:25;;;;;;;;;;;;;;;;;;4996347;28;20011;-73
2021/01/16 16:10:51;;;;;;;;;;;;;;;;;;4993034;28;19918;-72
2021/01/16 16:13:17;;;;;;;;;;;;;;;;;;4997588;28;20000;-72
2021/01/16 16:15:42;;;;;;;;;;;;;;;;;;4994216;28;19960;-72
2021/01/16 16:18:14;;;;;;;;;;;;;;;;;;5000910;28;19933;-74
2021/01/16 16:20:40;;;;;;;;;;;;;;;;;;4993611;28;19913;-75
2021/01/16 16:23:06;;;;;;;;;;;;;;;;;;4981465;28;20366;-72
2021/01/16 16:25:32;;;;;;;;;;;;;;;;;;4988658;28;19913;-76
2021/01/16 16:27:58;;;;;;;;;;;;;;;;;;4989971;28;20076;-73
2021/01/16 16:30:24;;;;;;;;;;;;;;;;;;4984193;28;19910;-72
2021/01/16 16:32:50;;;;;;;;;;;;;;;;;;4996391;28;20373;-73
2021/01/16 16:35:15;;;;;;;;;;;;;;;;;;4993279;28;19981;-74
2021/01/16 16:37:41;;;;;;;;;;;;;;;;;;4993471;28;19976;-74
2021/01/16 16:40:07;;;;;;;;;;;;;;;;;;4990529;28;19916;-73
2021/01/16 16:42:33;;;;;;;;;;;;;;;;;;4986329;28;19910;-72
2021/01/16 16:44:59;;;;;;;;;;;;;;;;;;4989080;28;19955;-74